sensor_id;sensor_type;location;lat;lon;timestamp;P1;durP1;ratioP1;P2;durP2;ratioP2
29358;SDS011;16347;53.232;6.556;2022-09-01T00:00:00;3.30;;;1.30;;
29358;SDS011;16347;53.232;6.556;2022-09-01T00:02:32;4.45;;;1.50;;
29358;SDS011;16347;53.232;6.556;2022-09-01T00:05:04;6.78;;;1.42;;
29358;SDS011;16347;53.232;6.556;2022-09-01T00:07:33;6.10;;;1.92;;
29358;SDS011;16347;53.232;6.556;2022-09-01T00:10:03;3.42;;;1.67;;
29358;SDS011;16347;53.232;6.556;2022-09-01T00:12:34;3.35;;;1.52;;
29358;SDS011;16347;53.232;6.556;2022-09-01T00:15:04;1.77;;;1.25;;
29358;SDS011;16347;53.232;6.556;2022-09-01T00:17:34;3.25;;;1.35;;
29358;SDS011;16347;53.232;6.556;2022-09-01T00:20:04;4.70;;;1.77;;
29358;SDS011;16347;53.232;6.556;2022-09-01T00:22:33;3.60;;;1.63;;
29358;SDS011;16347;53.232;6.556;2022-09-01T00:25:03;3.60;;;1.27;;
29358;SDS011;16347;53.232;6.556;2022-09-01T00:27:33;2.13;;;1.20;;
29358;SDS011;16347;53.232;6.556;2022-09-01T00:30:03;3.13;;;1.20;;
29358;SDS011;16347;53.232;6.556;2022-09-01T00:32:33;3.47;;;1.52;;
29358;SDS011;16347;53.232;6.556;2022-09-01T00:35:05;3.58;;;1.63;;
29358;SDS011;16347;53.232;6.556;2022-09-01T00:37:34;2.75;;;1.50;;
29358;SDS011;16347;53.232;6.556;2022-09-01T00:40:03;4.85;;;1.30;;
29358;SDS011;16347;53.232;6.556;2022-09-01T00:42:35;4.55;;;1.35;;
29358;SDS011;16347;53.232;6.556;2022-09-01T00:45:06;4.72;;;1.30;;
29358;SDS011;16347;53.232;6.556;2022-09-01T00:47:37;2.00;;;1.25;;
29358;SDS011;16347;53.232;6.556;2022-09-01T00:50:10;3.97;;;1.35;;
29358;SDS011;16347;53.232;6.556;2022-09-01T00:52:42;2.22;;;1.00;;
29358;SDS011;16347;53.232;6.556;2022-09-01T00:55:17;2.38;;;1.33;;
29358;SDS011;16347;53.232;6.556;2022-09-01T00:57:52;3.42;;;1.42;;
29358;SDS011;16347;53.232;6.556;2022-09-01T01:00:24;5.72;;;1.40;;
29358;SDS011;16347;53.232;6.556;2022-09-01T01:02:56;1.88;;;1.20;;
29358;SDS011;16347;53.232;6.556;2022-09-01T01:05:28;7.78;;;1.45;;
29358;SDS011;16347;53.232;6.556;2022-09-01T01:07:59;3.00;;;1.30;;
29358;SDS011;16347;53.232;6.556;2022-09-01T01:10:30;3.70;;;1.63;;
29358;SDS011;16347;53.232;6.556;2022-09-01T01:13:01;2.35;;;1.35;;
29358;SDS011;16347;53.232;6.556;2022-09-01T01:15:34;1.33;;;1.10;;
29358;SDS011;16347;53.232;6.556;2022-09-01T01:18:03;2.38;;;1.38;;
29358;SDS011;16347;53.232;6.556;2022-09-01T01:20:32;2.67;;;1.40;;
29358;SDS011;16347;53.232;6.556;2022-09-01T01:23:20;1.83;;;1.30;;
29358;SDS011;16347;53.232;6.556;2022-09-01T01:25:58;2.38;;;1.40;;
29358;SDS011;16347;53.232;6.556;2022-09-01T01:28:28;2.13;;;1.50;;
29358;SDS011;16347;53.232;6.556;2022-09-01T01:31:01;4.05;;;1.40;;
29358;SDS011;16347;53.232;6.556;2022-09-01T01:33:33;3.22;;;1.63;;
29358;SDS011;16347;53.232;6.556;2022-09-01T01:36:09;1.17;;;1.08;;
29358;SDS011;16347;53.232;6.556;2022-09-01T01:38:39;2.63;;;1.30;;
29358;SDS011;16347;53.232;6.556;2022-09-01T01:41:10;3.22;;;1.40;;
29358;SDS011;16347;53.232;6.556;2022-09-01T01:43:40;2.25;;;1.20;;
29358;SDS011;16347;53.232;6.556;2022-09-01T01:46:09;1.45;;;1.27;;
29358;SDS011;16347;53.232;6.556;2022-09-01T01:48:39;1.70;;;1.17;;
29358;SDS011;16347;53.232;6.556;2022-09-01T01:51:09;2.30;;;1.40;;
29358;SDS011;16347;53.232;6.556;2022-09-01T01:53:39;2.97;;;1.42;;
29358;SDS011;16347;53.232;6.556;2022-09-01T01:56:10;2.15;;;1.27;;
29358;SDS011;16347;53.232;6.556;2022-09-01T01:58:38;2.85;;;1.10;;
29358;SDS011;16347;53.232;6.556;2022-09-01T02:01:09;2.10;;;1.05;;
29358;SDS011;16347;53.232;6.556;2022-09-01T02:03:38;3.97;;;1.30;;
29358;SDS011;16347;53.232;6.556;2022-09-01T02:06:08;4.88;;;1.55;;
29358;SDS011;16347;53.232;6.556;2022-09-01T02:08:39;2.58;;;1.40;;
29358;SDS011;16347;53.232;6.556;2022-09-01T02:11:12;1.95;;;1.13;;
29358;SDS011;16347;53.232;6.556;2022-09-01T02:13:44;1.58;;;1.30;;
29358;SDS011;16347;53.232;6.556;2022-09-01T02:16:15;5.78;;;1.75;;
29358;SDS011;16347;53.232;6.556;2022-09-01T02:18:52;4.38;;;1.70;;
29358;SDS011;16347;53.232;6.556;2022-09-01T02:21:28;3.15;;;1.13;;
29358;SDS011;16347;53.232;6.556;2022-09-01T02:24:05;2.60;;;1.20;;
29358;SDS011;16347;53.232;6.556;2022-09-01T02:26:38;2.22;;;1.55;;
29358;SDS011;16347;53.232;6.556;2022-09-01T02:29:25;1.63;;;1.00;;
29358;SDS011;16347;53.232;6.556;2022-09-01T02:32:09;5.10;;;1.38;;
29358;SDS011;16347;53.232;6.556;2022-09-01T02:34:46;4.70;;;1.13;;
29358;SDS011;16347;53.232;6.556;2022-09-01T02:37:24;4.22;;;1.70;;
29358;SDS011;16347;53.232;6.556;2022-09-01T02:39:58;3.08;;;0.88;;
29358;SDS011;16347;53.232;6.556;2022-09-01T02:42:31;3.63;;;1.33;;
29358;SDS011;16347;53.232;6.556;2022-09-01T02:45:01;1.20;;;1.10;;
29358;SDS011;16347;53.232;6.556;2022-09-01T02:47:40;1.77;;;1.20;;
29358;SDS011;16347;53.232;6.556;2022-09-01T02:50:19;1.65;;;1.25;;
29358;SDS011;16347;53.232;6.556;2022-09-01T02:52:55;1.90;;;1.30;;
29358;SDS011;16347;53.232;6.556;2022-09-01T02:55:31;1.48;;;0.93;;
29358;SDS011;16347;53.232;6.556;2022-09-01T02:58:04;2.35;;;1.05;;
29358;SDS011;16347;53.232;6.556;2022-09-01T03:00:42;1.20;;;1.00;;
29358;SDS011;16347;53.232;6.556;2022-09-01T03:03:13;2.88;;;0.98;;
29358;SDS011;16347;53.232;6.556;2022-09-01T03:08:23;2.47;;;1.30;;
29358;SDS011;16347;53.232;6.556;2022-09-01T03:10:54;1.55;;;0.88;;
29358;SDS011;16347;53.232;6.556;2022-09-01T03:13:26;3.03;;;1.23;;
29358;SDS011;16347;53.232;6.556;2022-09-01T03:15:58;1.85;;;1.20;;
29358;SDS011;16347;53.232;6.556;2022-09-01T03:18:35;1.60;;;0.90;;
29358;SDS011;16347;53.232;6.556;2022-09-01T03:21:07;2.38;;;1.40;;
29358;SDS011;16347;53.232;6.556;2022-09-01T03:23:45;3.35;;;1.10;;
29358;SDS011;16347;53.232;6.556;2022-09-01T03:26:21;1.60;;;1.10;;
29358;SDS011;16347;53.232;6.556;2022-09-01T03:28:56;3.22;;;1.10;;
29358;SDS011;16347;53.232;6.556;2022-09-01T03:31:28;1.48;;;1.05;;
29358;SDS011;16347;53.232;6.556;2022-09-01T03:36:36;1.95;;;0.93;;
29358;SDS011;16347;53.232;6.556;2022-09-01T03:39:06;4.10;;;1.10;;
29358;SDS011;16347;53.232;6.556;2022-09-01T03:41:43;3.90;;;1.35;;
29358;SDS011;16347;53.232;6.556;2022-09-01T03:44:15;1.42;;;0.93;;
29358;SDS011;16347;53.232;6.556;2022-09-01T03:46:46;2.55;;;1.30;;
29358;SDS011;16347;53.232;6.556;2022-09-01T03:49:18;1.30;;;0.90;;
29358;SDS011;16347;53.232;6.556;2022-09-01T03:51:56;1.85;;;1.10;;
29358;SDS011;16347;53.232;6.556;2022-09-01T03:54:32;3.20;;;1.20;;
29358;SDS011;16347;53.232;6.556;2022-09-01T03:57:16;4.13;;;1.60;;
29358;SDS011;16347;53.232;6.556;2022-09-01T03:59:50;3.35;;;1.00;;
29358;SDS011;16347;53.232;6.556;2022-09-01T04:02:22;1.40;;;1.20;;
29358;SDS011;16347;53.232;6.556;2022-09-01T04:04:57;1.08;;;0.98;;
29358;SDS011;16347;53.232;6.556;2022-09-01T04:07:28;1.95;;;1.20;;
29358;SDS011;16347;53.232;6.556;2022-09-01T04:09:57;4.80;;;1.90;;
29358;SDS011;16347;53.232;6.556;2022-09-01T04:12:24;2.15;;;1.63;;
29358;SDS011;16347;53.232;6.556;2022-09-01T04:14:54;2.10;;;1.30;;
29358;SDS011;16347;53.232;6.556;2022-09-01T04:17:22;1.77;;;1.15;;
29358;SDS011;16347;53.232;6.556;2022-09-01T04:20:08;1.30;;;0.90;;
29358;SDS011;16347;53.232;6.556;2022-09-01T04:22:36;3.38;;;1.42;;
29358;SDS011;16347;53.232;6.556;2022-09-01T04:25:04;2.38;;;1.20;;
29358;SDS011;16347;53.232;6.556;2022-09-01T04:27:34;2.72;;;1.20;;
29358;SDS011;16347;53.232;6.556;2022-09-01T04:30:08;3.90;;;1.33;;
29358;SDS011;16347;53.232;6.556;2022-09-01T04:32:38;1.70;;;1.23;;
29358;SDS011;16347;53.232;6.556;2022-09-01T04:35:07;2.08;;;1.50;;
29358;SDS011;16347;53.232;6.556;2022-09-01T04:37:37;4.55;;;1.50;;
29358;SDS011;16347;53.232;6.556;2022-09-01T04:40:06;2.72;;;1.20;;
29358;SDS011;16347;53.232;6.556;2022-09-01T04:42:35;3.45;;;1.17;;
29358;SDS011;16347;53.232;6.556;2022-09-01T04:45:04;4.80;;;1.52;;
29358;SDS011;16347;53.232;6.556;2022-09-01T04:47:41;2.17;;;1.20;;
29358;SDS011;16347;53.232;6.556;2022-09-01T04:50:14;1.60;;;1.13;;
29358;SDS011;16347;53.232;6.556;2022-09-01T04:53:03;4.35;;;1.33;;
29358;SDS011;16347;53.232;6.556;2022-09-01T04:55:38;1.80;;;1.17;;
29358;SDS011;16347;53.232;6.556;2022-09-01T04:58:10;4.28;;;1.35;;
29358;SDS011;16347;53.232;6.556;2022-09-01T05:00:43;2.78;;;1.33;;
29358;SDS011;16347;53.232;6.556;2022-09-01T05:03:17;1.70;;;1.05;;
29358;SDS011;16347;53.232;6.556;2022-09-01T05:06:03;3.88;;;1.38;;
29358;SDS011;16347;53.232;6.556;2022-09-01T05:08:40;3.63;;;1.20;;
29358;SDS011;16347;53.232;6.556;2022-09-01T05:11:21;4.47;;;1.35;;
29358;SDS011;16347;53.232;6.556;2022-09-01T05:13:57;4.13;;;1.25;;
29358;SDS011;16347;53.232;6.556;2022-09-01T05:16:25;3.90;;;1.63;;
29358;SDS011;16347;53.232;6.556;2022-09-01T05:18:57;1.83;;;1.23;;
29358;SDS011;16347;53.232;6.556;2022-09-01T05:21:31;4.28;;;1.40;;
29358;SDS011;16347;53.232;6.556;2022-09-01T05:24:00;2.72;;;1.40;;
29358;SDS011;16347;53.232;6.556;2022-09-01T05:26:32;1.92;;;1.35;;
29358;SDS011;16347;53.232;6.556;2022-09-01T05:29:06;4.30;;;1.55;;
29358;SDS011;16347;53.232;6.556;2022-09-01T05:31:48;2.03;;;1.55;;
29358;SDS011;16347;53.232;6.556;2022-09-01T05:34:38;3.55;;;1.48;;
29358;SDS011;16347;53.232;6.556;2022-09-01T05:37:11;2.42;;;1.40;;
29358;SDS011;16347;53.232;6.556;2022-09-01T05:39:42;3.50;;;1.48;;
29358;SDS011;16347;53.232;6.556;2022-09-01T05:42:12;3.80;;;1.70;;
29358;SDS011;16347;53.232;6.556;2022-09-01T05:44:43;3.40;;;1.50;;
29358;SDS011;16347;53.232;6.556;2022-09-01T05:47:18;1.98;;;1.30;;
29358;SDS011;16347;53.232;6.556;2022-09-01T05:49:52;2.40;;;1.50;;
29358;SDS011;16347;53.232;6.556;2022-09-01T05:54:53;3.33;;;1.60;;
29358;SDS011;16347;53.232;6.556;2022-09-01T05:57:24;9.98;;;2.00;;
29358;SDS011;16347;53.232;6.556;2022-09-01T06:00:04;7.88;;;2.60;;
29358;SDS011;16347;53.232;6.556;2022-09-01T06:02:40;5.95;;;2.03;;
29358;SDS011;16347;53.232;6.556;2022-09-01T06:05:21;5.50;;;1.88;;
29358;SDS011;16347;53.232;6.556;2022-09-01T06:07:51;4.50;;;1.90;;
29358;SDS011;16347;53.232;6.556;2022-09-01T06:10:23;3.80;;;1.83;;
29358;SDS011;16347;53.232;6.556;2022-09-01T06:12:55;2.60;;;1.40;;
29358;SDS011;16347;53.232;6.556;2022-09-01T06:15:29;2.83;;;1.73;;
29358;SDS011;16347;53.232;6.556;2022-09-01T06:17:58;5.15;;;2.20;;
29358;SDS011;16347;53.232;6.556;2022-09-01T06:20:31;5.40;;;3.13;;
29358;SDS011;16347;53.232;6.556;2022-09-01T06:23:01;3.70;;;2.60;;
29358;SDS011;16347;53.232;6.556;2022-09-01T06:28:04;3.75;;;1.65;;
29358;SDS011;16347;53.232;6.556;2022-09-01T06:30:38;3.60;;;1.85;;
29358;SDS011;16347;53.232;6.556;2022-09-01T06:33:08;3.53;;;2.03;;
29358;SDS011;16347;53.232;6.556;2022-09-01T06:35:43;5.30;;;2.00;;
29358;SDS011;16347;53.232;6.556;2022-09-01T06:38:14;4.20;;;2.50;;
29358;SDS011;16347;53.232;6.556;2022-09-01T06:40:47;4.68;;;2.15;;
29358;SDS011;16347;53.232;6.556;2022-09-01T06:43:21;4.22;;;2.58;;
29358;SDS011;16347;53.232;6.556;2022-09-01T06:45:51;5.32;;;2.00;;
29358;SDS011;16347;53.232;6.556;2022-09-01T06:48:22;4.38;;;2.17;;
29358;SDS011;16347;53.232;6.556;2022-09-01T06:51:03;7.38;;;1.98;;
29358;SDS011;16347;53.232;6.556;2022-09-01T06:53:50;3.95;;;1.63;;
29358;SDS011;16347;53.232;6.556;2022-09-01T06:56:27;4.40;;;1.90;;
29358;SDS011;16347;53.232;6.556;2022-09-01T06:59:11;4.07;;;1.48;;
29358;SDS011;16347;53.232;6.556;2022-09-01T07:01:45;3.65;;;1.75;;
29358;SDS011;16347;53.232;6.556;2022-09-01T07:04:28;2.63;;;1.48;;
29358;SDS011;16347;53.232;6.556;2022-09-01T07:07:03;4.80;;;2.00;;
29358;SDS011;16347;53.232;6.556;2022-09-01T07:10:21;4.93;;;2.28;;
29358;SDS011;16347;53.232;6.556;2022-09-01T07:13:14;8.63;;;2.10;;
29358;SDS011;16347;53.232;6.556;2022-09-01T07:15:48;2.20;;;1.70;;
29358;SDS011;16347;53.232;6.556;2022-09-01T07:18:41;4.53;;;1.95;;
29358;SDS011;16347;53.232;6.556;2022-09-01T07:21:24;3.50;;;2.08;;
29358;SDS011;16347;53.232;6.556;2022-09-01T07:24:16;4.68;;;2.20;;
29358;SDS011;16347;53.232;6.556;2022-09-01T07:27:05;4.88;;;2.05;;
29358;SDS011;16347;53.232;6.556;2022-09-01T07:29:35;2.88;;;1.60;;
29358;SDS011;16347;53.232;6.556;2022-09-01T07:32:07;7.85;;;4.15;;
29358;SDS011;16347;53.232;6.556;2022-09-01T07:34:55;2.70;;;1.70;;
29358;SDS011;16347;53.232;6.556;2022-09-01T07:37:27;4.32;;;1.92;;
29358;SDS011;16347;53.232;6.556;2022-09-01T07:40:18;3.63;;;1.70;;
29358;SDS011;16347;53.232;6.556;2022-09-01T07:43:40;2.70;;;1.67;;
29358;SDS011;16347;53.232;6.556;2022-09-01T07:46:28;2.95;;;2.05;;
29358;SDS011;16347;53.232;6.556;2022-09-01T07:49:10;3.17;;;1.77;;
29358;SDS011;16347;53.232;6.556;2022-09-01T07:51:58;4.13;;;1.92;;
29358;SDS011;16347;53.232;6.556;2022-09-01T07:54:29;7.68;;;2.05;;
29358;SDS011;16347;53.232;6.556;2022-09-01T07:57:01;3.83;;;1.50;;
29358;SDS011;16347;53.232;6.556;2022-09-01T07:59:33;3.13;;;1.50;;
29358;SDS011;16347;53.232;6.556;2022-09-01T08:02:08;3.60;;;1.65;;
29358;SDS011;16347;53.232;6.556;2022-09-01T08:04:38;6.15;;;1.70;;
29358;SDS011;16347;53.232;6.556;2022-09-01T08:07:08;5.05;;;1.85;;
29358;SDS011;16347;53.232;6.556;2022-09-01T08:09:42;2.47;;;1.50;;
29358;SDS011;16347;53.232;6.556;2022-09-01T08:12:15;2.78;;;1.50;;
29358;SDS011;16347;53.232;6.556;2022-09-01T08:14:55;4.82;;;2.25;;
29358;SDS011;16347;53.232;6.556;2022-09-01T08:17:44;5.40;;;2.08;;
29358;SDS011;16347;53.232;6.556;2022-09-01T08:20:19;1.60;;;1.33;;
29358;SDS011;16347;53.232;6.556;2022-09-01T08:23:00;4.85;;;1.90;;
29358;SDS011;16347;53.232;6.556;2022-09-01T08:25:34;3.78;;;1.75;;
29358;SDS011;16347;53.232;6.556;2022-09-01T08:28:10;3.08;;;1.50;;
29358;SDS011;16347;53.232;6.556;2022-09-01T08:30:44;6.38;;;1.75;;
29358;SDS011;16347;53.232;6.556;2022-09-01T08:33:18;3.17;;;1.92;;
29358;SDS011;16347;53.232;6.556;2022-09-01T08:35:49;4.53;;;1.40;;
29358;SDS011;16347;53.232;6.556;2022-09-01T08:38:18;2.08;;;1.30;;
29358;SDS011;16347;53.232;6.556;2022-09-01T08:40:49;2.28;;;1.25;;
29358;SDS011;16347;53.232;6.556;2022-09-01T08:43:30;4.07;;;1.40;;
29358;SDS011;16347;53.232;6.556;2022-09-01T08:46:12;3.72;;;1.77;;
29358;SDS011;16347;53.232;6.556;2022-09-01T08:48:49;2.33;;;1.33;;
29358;SDS011;16347;53.232;6.556;2022-09-01T08:52:01;2.15;;;1.20;;
29358;SDS011;16347;53.232;6.556;2022-09-01T08:54:44;2.35;;;1.35;;
29358;SDS011;16347;53.232;6.556;2022-09-01T08:57:19;2.30;;;1.15;;
29358;SDS011;16347;53.232;6.556;2022-09-01T09:00:12;11.73;;;2.80;;
29358;SDS011;16347;53.232;6.556;2022-09-01T09:02:50;4.68;;;1.52;;
29358;SDS011;16347;53.232;6.556;2022-09-01T09:11:23;3.38;;;1.50;;
29358;SDS011;16347;53.232;6.556;2022-09-01T09:14:13;3.15;;;1.40;;
29358;SDS011;16347;53.232;6.556;2022-09-01T09:16:58;7.13;;;2.78;;
29358;SDS011;16347;53.232;6.556;2022-09-01T09:19:30;8.17;;;1.50;;
29358;SDS011;16347;53.232;6.556;2022-09-01T09:22:04;3.20;;;1.52;;
29358;SDS011;16347;53.232;6.556;2022-09-01T09:24:41;3.17;;;1.35;;
29358;SDS011;16347;53.232;6.556;2022-09-01T09:27:18;2.28;;;1.15;;
29358;SDS011;16347;53.232;6.556;2022-09-01T09:29:48;3.97;;;1.50;;
29358;SDS011;16347;53.232;6.556;2022-09-01T09:32:23;2.47;;;1.33;;
29358;SDS011;16347;53.232;6.556;2022-09-01T09:35:32;6.18;;;1.52;;
29358;SDS011;16347;53.232;6.556;2022-09-01T09:38:18;3.53;;;1.70;;
29358;SDS011;16347;53.232;6.556;2022-09-01T09:40:58;2.40;;;0.90;;
29358;SDS011;16347;53.232;6.556;2022-09-01T09:43:51;4.05;;;1.00;;
29358;SDS011;16347;53.232;6.556;2022-09-01T09:46:32;1.60;;;1.05;;
29358;SDS011;16347;53.232;6.556;2022-09-01T09:49:11;1.23;;;0.95;;
29358;SDS011;16347;53.232;6.556;2022-09-01T09:52:14;4.40;;;0.77;;
29358;SDS011;16347;53.232;6.556;2022-09-01T09:54:59;2.28;;;1.08;;
29358;SDS011;16347;53.232;6.556;2022-09-01T09:57:30;3.40;;;0.88;;
29358;SDS011;16347;53.232;6.556;2022-09-01T10:00:14;4.20;;;1.45;;
29358;SDS011;16347;53.232;6.556;2022-09-01T10:08:13;6.65;;;1.23;;
29358;SDS011;16347;53.232;6.556;2022-09-01T10:11:03;14.73;;;1.55;;
29358;SDS011;16347;53.232;6.556;2022-09-01T10:13:33;4.35;;;1.30;;
29358;SDS011;16347;53.232;6.556;2022-09-01T10:16:03;2.60;;;1.15;;
29358;SDS011;16347;53.232;6.556;2022-09-01T10:18:38;1.70;;;0.90;;
29358;SDS011;16347;53.232;6.556;2022-09-01T10:21:12;4.50;;;1.15;;
29358;SDS011;16347;53.232;6.556;2022-09-01T10:23:43;2.05;;;1.45;;
29358;SDS011;16347;53.232;6.556;2022-09-01T10:26:13;1.90;;;1.00;;
29358;SDS011;16347;53.232;6.556;2022-09-01T10:28:48;3.40;;;1.23;;
29358;SDS011;16347;53.232;6.556;2022-09-01T10:31:28;4.07;;;1.30;;
29358;SDS011;16347;53.232;6.556;2022-09-01T10:34:00;3.10;;;1.20;;
29358;SDS011;16347;53.232;6.556;2022-09-01T10:36:35;2.63;;;0.95;;
29358;SDS011;16347;53.232;6.556;2022-09-01T10:39:07;2.58;;;1.27;;
29358;SDS011;16347;53.232;6.556;2022-09-01T10:41:54;1.75;;;1.10;;
29358;SDS011;16347;53.232;6.556;2022-09-01T10:44:35;1.17;;;0.88;;
29358;SDS011;16347;53.232;6.556;2022-09-01T10:47:28;1.30;;;0.73;;
29358;SDS011;16347;53.232;6.556;2022-09-01T10:50:00;1.83;;;1.13;;
29358;SDS011;16347;53.232;6.556;2022-09-01T10:52:58;1.15;;;0.88;;
29358;SDS011;16347;53.232;6.556;2022-09-01T10:55:42;1.98;;;1.17;;
29358;SDS011;16347;53.232;6.556;2022-09-01T10:58:32;2.30;;;1.50;;
29358;SDS011;16347;53.232;6.556;2022-09-01T11:05:13;1.70;;;0.85;;
29358;SDS011;16347;53.232;6.556;2022-09-01T11:07:46;2.53;;;1.15;;
29358;SDS011;16347;53.232;6.556;2022-09-01T11:10:35;1.65;;;1.20;;
29358;SDS011;16347;53.232;6.556;2022-09-01T11:13:37;1.38;;;0.98;;
29358;SDS011;16347;53.232;6.556;2022-09-01T11:16:33;1.58;;;0.70;;
29358;SDS011;16347;53.232;6.556;2022-09-01T11:19:29;2.17;;;1.30;;
29358;SDS011;16347;53.232;6.556;2022-09-01T11:22:18;2.50;;;1.55;;
29358;SDS011;16347;53.232;6.556;2022-09-01T11:27:58;2.75;;;1.13;;
29358;SDS011;16347;53.232;6.556;2022-09-01T11:30:44;2.75;;;0.88;;
29358;SDS011;16347;53.232;6.556;2022-09-01T11:33:27;2.80;;;1.30;;
29358;SDS011;16347;53.232;6.556;2022-09-01T11:36:02;2.95;;;1.23;;
29358;SDS011;16347;53.232;6.556;2022-09-01T11:38:37;2.55;;;0.95;;
29358;SDS011;16347;53.232;6.556;2022-09-01T11:41:22;1.50;;;1.00;;
29358;SDS011;16347;53.232;6.556;2022-09-01T11:43:56;1.70;;;0.90;;
29358;SDS011;16347;53.232;6.556;2022-09-01T11:46:28;2.53;;;1.00;;
29358;SDS011;16347;53.232;6.556;2022-09-01T11:49:02;0.98;;;0.55;;
29358;SDS011;16347;53.232;6.556;2022-09-01T11:51:42;2.33;;;1.23;;
29358;SDS011;16347;53.232;6.556;2022-09-01T11:54:14;1.83;;;1.15;;
29358;SDS011;16347;53.232;6.556;2022-09-01T11:56:44;2.40;;;0.70;;
29358;SDS011;16347;53.232;6.556;2022-09-01T12:02:00;5.13;;;0.90;;
29358;SDS011;16347;53.232;6.556;2022-09-01T12:04:33;1.23;;;0.60;;
29358;SDS011;16347;53.232;6.556;2022-09-01T12:09:37;4.07;;;0.70;;
29358;SDS011;16347;53.232;6.556;2022-09-01T12:12:24;1.52;;;0.75;;
29358;SDS011;16347;53.232;6.556;2022-09-01T12:15:00;2.28;;;0.90;;
29358;SDS011;16347;53.232;6.556;2022-09-01T12:17:34;2.25;;;1.08;;
29358;SDS011;16347;53.232;6.556;2022-09-01T12:20:24;2.50;;;1.35;;
29358;SDS011;16347;53.232;6.556;2022-09-01T12:22:57;4.40;;;0.90;;
29358;SDS011;16347;53.232;6.556;2022-09-01T12:25:29;3.03;;;0.80;;
29358;SDS011;16347;53.232;6.556;2022-09-01T12:28:00;2.20;;;0.98;;
29358;SDS011;16347;53.232;6.556;2022-09-01T12:30:32;1.05;;;0.60;;
29358;SDS011;16347;53.232;6.556;2022-09-01T12:33:06;2.25;;;0.93;;
29358;SDS011;16347;53.232;6.556;2022-09-01T12:38:50;4.97;;;1.10;;
29358;SDS011;16347;53.232;6.556;2022-09-01T12:41:22;2.87;;;0.80;;
29358;SDS011;16347;53.232;6.556;2022-09-01T12:47:00;0.95;;;0.60;;
29358;SDS011;16347;53.232;6.556;2022-09-01T12:49:35;3.88;;;0.80;;
29358;SDS011;16347;53.232;6.556;2022-09-01T12:52:19;0.65;;;0.63;;
29358;SDS011;16347;53.232;6.556;2022-09-01T12:54:54;2.10;;;0.93;;
29358;SDS011;16347;53.232;6.556;2022-09-01T12:58:01;2.05;;;0.85;;
29358;SDS011;16347;53.232;6.556;2022-09-01T13:00:33;3.63;;;1.02;;
29358;SDS011;16347;53.232;6.556;2022-09-01T13:03:10;2.72;;;0.70;;
29358;SDS011;16347;53.232;6.556;2022-09-01T13:05:42;3.13;;;0.65;;
29358;SDS011;16347;53.232;6.556;2022-09-01T13:08:15;1.20;;;0.70;;
29358;SDS011;16347;53.232;6.556;2022-09-01T13:10:46;4.10;;;0.98;;
29358;SDS011;16347;53.232;6.556;2022-09-01T13:13:17;2.05;;;1.02;;
29358;SDS011;16347;53.232;6.556;2022-09-01T13:15:47;8.27;;;0.90;;
29358;SDS011;16347;53.232;6.556;2022-09-01T13:18:19;4.97;;;0.52;;
29358;SDS011;16347;53.232;6.556;2022-09-01T13:20:49;2.60;;;0.70;;
29358;SDS011;16347;53.232;6.556;2022-09-01T13:23:18;2.55;;;1.00;;
29358;SDS011;16347;53.232;6.556;2022-09-01T13:25:48;4.03;;;2.33;;
29358;SDS011;16347;53.232;6.556;2022-09-01T13:28:16;1.05;;;0.70;;
29358;SDS011;16347;53.232;6.556;2022-09-01T13:30:47;2.17;;;0.70;;
29358;SDS011;16347;53.232;6.556;2022-09-01T13:33:40;1.95;;;0.60;;
29358;SDS011;16347;53.232;6.556;2022-09-01T13:36:28;1.08;;;0.60;;
29358;SDS011;16347;53.232;6.556;2022-09-01T13:39:17;7.25;;;0.80;;
29358;SDS011;16347;53.232;6.556;2022-09-01T13:41:46;3.08;;;0.88;;
29358;SDS011;16347;53.232;6.556;2022-09-01T13:44:15;1.10;;;0.77;;
29358;SDS011;16347;53.232;6.556;2022-09-01T13:46:44;1.77;;;0.80;;
29358;SDS011;16347;53.232;6.556;2022-09-01T13:49:35;1.33;;;0.60;;
29358;SDS011;16347;53.232;6.556;2022-09-01T13:52:23;1.33;;;0.80;;
29358;SDS011;16347;53.232;6.556;2022-09-01T13:54:51;2.08;;;0.55;;
29358;SDS011;16347;53.232;6.556;2022-09-01T13:57:19;1.13;;;0.60;;
29358;SDS011;16347;53.232;6.556;2022-09-01T13:59:47;2.22;;;0.80;;
29358;SDS011;16347;53.232;6.556;2022-09-01T14:02:15;1.95;;;0.70;;
29358;SDS011;16347;53.232;6.556;2022-09-01T14:04:45;0.90;;;0.75;;
29358;SDS011;16347;53.232;6.556;2022-09-01T14:07:14;1.80;;;0.52;;
29358;SDS011;16347;53.232;6.556;2022-09-01T14:09:45;1.38;;;0.57;;
29358;SDS011;16347;53.232;6.556;2022-09-01T14:12:15;6.43;;;1.00;;
29358;SDS011;16347;53.232;6.556;2022-09-01T14:14:45;0.68;;;0.68;;
29358;SDS011;16347;53.232;6.556;2022-09-01T14:17:34;3.58;;;0.70;;
29358;SDS011;16347;53.232;6.556;2022-09-01T14:20:10;1.00;;;0.80;;
29358;SDS011;16347;53.232;6.556;2022-09-01T14:22:43;1.05;;;0.68;;
29358;SDS011;16347;53.232;6.556;2022-09-01T14:25:17;1.42;;;0.70;;
29358;SDS011;16347;53.232;6.556;2022-09-01T14:27:48;1.63;;;0.70;;
29358;SDS011;16347;53.232;6.556;2022-09-01T14:30:21;2.00;;;0.65;;
29358;SDS011;16347;53.232;6.556;2022-09-01T14:32:58;6.93;;;1.05;;
29358;SDS011;16347;53.232;6.556;2022-09-01T14:35:31;1.92;;;0.57;;
29358;SDS011;16347;53.232;6.556;2022-09-01T14:38:01;1.23;;;0.73;;
29358;SDS011;16347;53.232;6.556;2022-09-01T14:40:31;1.48;;;1.00;;
29358;SDS011;16347;53.232;6.556;2022-09-01T14:43:05;1.70;;;0.60;;
29358;SDS011;16347;53.232;6.556;2022-09-01T14:45:43;3.17;;;0.60;;
29358;SDS011;16347;53.232;6.556;2022-09-01T14:48:14;1.20;;;0.50;;
29358;SDS011;16347;53.232;6.556;2022-09-01T14:50:47;2.33;;;0.90;;
29358;SDS011;16347;53.232;6.556;2022-09-01T14:53:18;0.85;;;0.63;;
29358;SDS011;16347;53.232;6.556;2022-09-01T14:55:50;3.70;;;1.02;;
29358;SDS011;16347;53.232;6.556;2022-09-01T14:58:23;1.92;;;0.60;;
29358;SDS011;16347;53.232;6.556;2022-09-01T15:00:56;3.05;;;0.60;;
29358;SDS011;16347;53.232;6.556;2022-09-01T15:03:48;6.47;;;1.20;;
29358;SDS011;16347;53.232;6.556;2022-09-01T15:06:19;2.78;;;0.85;;
29358;SDS011;16347;53.232;6.556;2022-09-01T15:08:52;0.50;;;0.45;;
29358;SDS011;16347;53.232;6.556;2022-09-01T15:11:24;2.17;;;0.43;;
29358;SDS011;16347;53.232;6.556;2022-09-01T15:13:54;3.05;;;0.95;;
29358;SDS011;16347;53.232;6.556;2022-09-01T15:16:28;1.55;;;0.70;;
29358;SDS011;16347;53.232;6.556;2022-09-01T15:19:02;0.68;;;0.60;;
29358;SDS011;16347;53.232;6.556;2022-09-01T15:21:33;2.88;;;0.60;;
29358;SDS011;16347;53.232;6.556;2022-09-01T15:24:06;1.33;;;0.55;;
29358;SDS011;16347;53.232;6.556;2022-09-01T15:26:40;0.95;;;0.40;;
29358;SDS011;16347;53.232;6.556;2022-09-01T15:29:09;0.82;;;0.65;;
29358;SDS011;16347;53.232;6.556;2022-09-01T15:31:40;2.65;;;0.80;;
29358;SDS011;16347;53.232;6.556;2022-09-01T15:34:10;4.32;;;0.70;;
29358;SDS011;16347;53.232;6.556;2022-09-01T15:36:44;1.55;;;0.75;;
29358;SDS011;16347;53.232;6.556;2022-09-01T15:39:15;2.13;;;0.57;;
29358;SDS011;16347;53.232;6.556;2022-09-01T15:41:47;3.28;;;0.65;;
29358;SDS011;16347;53.232;6.556;2022-09-01T15:44:17;0.65;;;0.55;;
29358;SDS011;16347;53.232;6.556;2022-09-01T15:46:49;2.33;;;0.60;;
29358;SDS011;16347;53.232;6.556;2022-09-01T15:49:20;3.10;;;0.70;;
29358;SDS011;16347;53.232;6.556;2022-09-01T15:51:51;1.25;;;0.65;;
29358;SDS011;16347;53.232;6.556;2022-09-01T15:54:22;1.58;;;0.90;;
29358;SDS011;16347;53.232;6.556;2022-09-01T15:56:57;1.23;;;0.80;;
29358;SDS011;16347;53.232;6.556;2022-09-01T15:59:28;1.23;;;0.80;;
29358;SDS011;16347;53.232;6.556;2022-09-01T16:02:02;4.00;;;1.13;;
29358;SDS011;16347;53.232;6.556;2022-09-01T16:04:33;6.75;;;0.98;;
29358;SDS011;16347;53.232;6.556;2022-09-01T16:07:05;3.70;;;1.13;;
29358;SDS011;16347;53.232;6.556;2022-09-01T16:09:33;1.70;;;1.35;;
29358;SDS011;16347;53.232;6.556;2022-09-01T16:12:02;8.02;;;1.20;;
29358;SDS011;16347;53.232;6.556;2022-09-01T16:14:31;3.22;;;0.88;;
29358;SDS011;16347;53.232;6.556;2022-09-01T16:17:01;2.17;;;0.98;;